sensor_id;sensor_type;location;lat;lon;timestamp;P1;durP1;ratioP1;P2;durP2;ratioP2
26219;SDS011;13955;55.574;37.474;2022-09-12T00:00:19;10.37;;;7.10;;
26219;SDS011;13955;55.574;37.474;2022-09-12T00:02:52;12.78;;;7.83;;
26219;SDS011;13955;55.574;37.474;2022-09-12T00:05:21;11.88;;;7.70;;
26219;SDS011;13955;55.574;37.474;2022-09-12T00:07:50;15.58;;;8.40;;
26219;SDS011;13955;55.574;37.474;2022-09-12T00:10:19;10.98;;;7.78;;
26219;SDS011;13955;55.574;37.474;2022-09-12T00:12:48;14.35;;;8.30;;
26219;SDS011;13955;55.574;37.474;2022-09-12T00:15:17;14.23;;;8.28;;
26219;SDS011;13955;55.574;37.474;2022-09-12T00:17:46;16.30;;;8.30;;
26219;SDS011;13955;55.574;37.474;2022-09-12T00:20:14;14.40;;;8.53;;
26219;SDS011;13955;55.574;37.474;2022-09-12T00:22:44;14.28;;;9.45;;
26219;SDS011;13955;55.574;37.474;2022-09-12T00:25:12;11.80;;;8.45;;
26219;SDS011;13955;55.574;37.474;2022-09-12T00:27:41;22.27;;;8.20;;
26219;SDS011;13955;55.574;37.474;2022-09-12T00:30:10;11.80;;;8.10;;
26219;SDS011;13955;55.574;37.474;2022-09-12T00:32:39;11.00;;;8.58;;
26219;SDS011;13955;55.574;37.474;2022-09-12T00:35:07;11.05;;;7.33;;
26219;SDS011;13955;55.574;37.474;2022-09-12T00:37:36;10.65;;;7.50;;
26219;SDS011;13955;55.574;37.474;2022-09-12T00:40:05;11.15;;;7.75;;
26219;SDS011;13955;55.574;37.474;2022-09-12T00:42:34;10.95;;;7.03;;
26219;SDS011;13955;55.574;37.474;2022-09-12T00:45:02;15.70;;;12.37;;
26219;SDS011;13955;55.574;37.474;2022-09-12T00:47:31;26.62;;;18.90;;
26219;SDS011;13955;55.574;37.474;2022-09-12T00:50:03;43.48;;;25.75;;
26219;SDS011;13955;55.574;37.474;2022-09-12T00:52:33;11.50;;;6.95;;
26219;SDS011;13955;55.574;37.474;2022-09-12T00:55:10;7.20;;;5.17;;
26219;SDS011;13955;55.574;37.474;2022-09-12T00:57:42;9.20;;;6.70;;
26219;SDS011;13955;55.574;37.474;2022-09-12T01:00:11;10.03;;;5.93;;
26219;SDS011;13955;55.574;37.474;2022-09-12T01:02:51;13.55;;;6.72;;
26219;SDS011;13955;55.574;37.474;2022-09-12T01:05:14;13.72;;;7.92;;
26219;SDS011;13955;55.574;37.474;2022-09-12T01:07:43;9.73;;;7.20;;
26219;SDS011;13955;55.574;37.474;2022-09-12T01:10:14;7.70;;;5.83;;
26219;SDS011;13955;55.574;37.474;2022-09-12T01:12:43;12.23;;;8.15;;
26219;SDS011;13955;55.574;37.474;2022-09-12T01:15:11;13.68;;;7.30;;
26219;SDS011;13955;55.574;37.474;2022-09-12T01:17:48;10.35;;;7.15;;
26219;SDS011;13955;55.574;37.474;2022-09-12T01:20:24;11.63;;;8.15;;
26219;SDS011;13955;55.574;37.474;2022-09-12T01:22:59;14.43;;;9.23;;
26219;SDS011;13955;55.574;37.474;2022-09-12T01:25:27;12.13;;;8.05;;
26219;SDS011;13955;55.574;37.474;2022-09-12T01:33:22;12.65;;;8.45;;
26219;SDS011;13955;55.574;37.474;2022-09-12T01:38:33;12.58;;;8.00;;
26219;SDS011;13955;55.574;37.474;2022-09-12T01:41:04;10.68;;;8.18;;
26219;SDS011;13955;55.574;37.474;2022-09-12T01:43:33;16.17;;;8.65;;
26219;SDS011;13955;55.574;37.474;2022-09-12T01:46:12;10.65;;;8.40;;
26219;SDS011;13955;55.574;37.474;2022-09-12T01:48:43;16.05;;;8.45;;
26219;SDS011;13955;55.574;37.474;2022-09-12T01:51:16;13.13;;;8.35;;
26219;SDS011;13955;55.574;37.474;2022-09-12T01:53:45;15.23;;;9.65;;
26219;SDS011;13955;55.574;37.474;2022-09-12T01:56:16;14.63;;;8.43;;
26219;SDS011;13955;55.574;37.474;2022-09-12T01:58:57;15.15;;;9.88;;
26219;SDS011;13955;55.574;37.474;2022-09-12T02:01:26;11.65;;;8.98;;
26219;SDS011;13955;55.574;37.474;2022-09-12T02:03:58;14.73;;;9.60;;
26219;SDS011;13955;55.574;37.474;2022-09-12T02:06:36;13.98;;;9.85;;
26219;SDS011;13955;55.574;37.474;2022-09-12T02:09:16;16.12;;;10.03;;
26219;SDS011;13955;55.574;37.474;2022-09-12T02:11:39;13.25;;;9.55;;
26219;SDS011;13955;55.574;37.474;2022-09-12T02:14:10;16.62;;;10.18;;
26219;SDS011;13955;55.574;37.474;2022-09-12T02:16:39;16.67;;;9.43;;
26219;SDS011;13955;55.574;37.474;2022-09-12T02:19:12;9.30;;;7.35;;
26219;SDS011;13955;55.574;37.474;2022-09-12T02:21:40;21.03;;;10.90;;
26219;SDS011;13955;55.574;37.474;2022-09-12T02:24:09;17.10;;;10.53;;
26219;SDS011;13955;55.574;37.474;2022-09-12T02:26:41;15.73;;;10.13;;
26219;SDS011;13955;55.574;37.474;2022-09-12T02:29:10;15.77;;;11.23;;
26219;SDS011;13955;55.574;37.474;2022-09-12T02:31:58;17.55;;;10.75;;
26219;SDS011;13955;55.574;37.474;2022-09-12T02:36:58;18.45;;;11.28;;
26219;SDS011;13955;55.574;37.474;2022-09-12T02:39:24;14.20;;;10.63;;
26219;SDS011;13955;55.574;37.474;2022-09-12T02:41:53;16.07;;;10.63;;
26219;SDS011;13955;55.574;37.474;2022-09-12T02:44:23;15.48;;;10.13;;
26219;SDS011;13955;55.574;37.474;2022-09-12T02:46:53;13.05;;;10.85;;
26219;SDS011;13955;55.574;37.474;2022-09-12T02:49:23;20.43;;;12.25;;
26219;SDS011;13955;55.574;37.474;2022-09-12T02:51:51;16.52;;;11.10;;
26219;SDS011;13955;55.574;37.474;2022-09-12T02:54:20;18.20;;;11.97;;
26219;SDS011;13955;55.574;37.474;2022-09-12T02:59:38;17.70;;;10.95;;
26219;SDS011;13955;55.574;37.474;2022-09-12T03:02:14;18.70;;;11.38;;
26219;SDS011;13955;55.574;37.474;2022-09-12T03:18:10;21.17;;;12.60;;
26219;SDS011;13955;55.574;37.474;2022-09-12T03:28:27;17.65;;;12.15;;
26219;SDS011;13955;55.574;37.474;2022-09-12T03:30:57;17.98;;;12.40;;
26219;SDS011;13955;55.574;37.474;2022-09-12T03:33:26;16.73;;;12.00;;
26219;SDS011;13955;55.574;37.474;2022-09-12T03:35:54;22.10;;;13.80;;
26219;SDS011;13955;55.574;37.474;2022-09-12T03:38:23;19.85;;;13.28;;
26219;SDS011;13955;55.574;37.474;2022-09-12T03:40:52;22.87;;;13.38;;
26219;SDS011;13955;55.574;37.474;2022-09-12T03:43:21;20.37;;;13.50;;
26219;SDS011;13955;55.574;37.474;2022-09-12T03:45:50;22.20;;;13.72;;
26219;SDS011;13955;55.574;37.474;2022-09-12T03:48:20;26.02;;;14.83;;
26219;SDS011;13955;55.574;37.474;2022-09-12T03:50:48;21.17;;;14.38;;
26219;SDS011;13955;55.574;37.474;2022-09-12T03:53:17;26.70;;;14.20;;
26219;SDS011;13955;55.574;37.474;2022-09-12T03:55:46;20.35;;;13.85;;
26219;SDS011;13955;55.574;37.474;2022-09-12T04:00:52;18.87;;;12.73;;
26219;SDS011;13955;55.574;37.474;2022-09-12T04:03:21;17.32;;;12.68;;
26219;SDS011;13955;55.574;37.474;2022-09-12T04:05:50;19.20;;;12.58;;
26219;SDS011;13955;55.574;37.474;2022-09-12T04:08:19;20.05;;;13.48;;
26219;SDS011;13955;55.574;37.474;2022-09-12T04:10:47;24.72;;;14.33;;
26219;SDS011;13955;55.574;37.474;2022-09-12T04:15:58;20.37;;;12.58;;
26219;SDS011;13955;55.574;37.474;2022-09-12T04:18:27;19.00;;;12.65;;
26219;SDS011;13955;55.574;37.474;2022-09-12T04:20:56;18.85;;;12.65;;
26219;SDS011;13955;55.574;37.474;2022-09-12T04:23:25;23.00;;;12.70;;
26219;SDS011;13955;55.574;37.474;2022-09-12T04:25:54;18.70;;;12.20;;
26219;SDS011;13955;55.574;37.474;2022-09-12T04:28:23;17.02;;;12.50;;
26219;SDS011;13955;55.574;37.474;2022-09-12T04:30:52;17.62;;;10.85;;
26219;SDS011;13955;55.574;37.474;2022-09-12T04:33:22;15.95;;;10.53;;
26219;SDS011;13955;55.574;37.474;2022-09-12T04:35:51;13.20;;;9.18;;
26219;SDS011;13955;55.574;37.474;2022-09-12T04:38:20;18.12;;;11.15;;
26219;SDS011;13955;55.574;37.474;2022-09-12T04:40:49;18.40;;;11.38;;
26219;SDS011;13955;55.574;37.474;2022-09-12T04:43:17;16.85;;;10.05;;
26219;SDS011;13955;55.574;37.474;2022-09-12T04:45:46;16.32;;;10.03;;
26219;SDS011;13955;55.574;37.474;2022-09-12T04:48:15;14.30;;;10.45;;
26219;SDS011;13955;55.574;37.474;2022-09-12T04:50:44;14.78;;;9.75;;
26219;SDS011;13955;55.574;37.474;2022-09-12T04:53:13;11.53;;;8.48;;
26219;SDS011;13955;55.574;37.474;2022-09-12T04:55:42;13.15;;;9.83;;
26219;SDS011;13955;55.574;37.474;2022-09-12T04:58:10;12.63;;;8.33;;
26219;SDS011;13955;55.574;37.474;2022-09-12T05:00:39;12.23;;;8.98;;
26219;SDS011;13955;55.574;37.474;2022-09-12T05:03:08;12.40;;;8.98;;
26219;SDS011;13955;55.574;37.474;2022-09-12T05:05:36;17.25;;;9.25;;
26219;SDS011;13955;55.574;37.474;2022-09-12T05:08:05;11.90;;;8.58;;
26219;SDS011;13955;55.574;37.474;2022-09-12T05:10:35;16.07;;;9.38;;
26219;SDS011;13955;55.574;37.474;2022-09-12T05:13:04;15.13;;;9.23;;
26219;SDS011;13955;55.574;37.474;2022-09-12T05:15:32;14.15;;;9.78;;
26219;SDS011;13955;55.574;37.474;2022-09-12T05:18:01;12.90;;;9.15;;
26219;SDS011;13955;55.574;37.474;2022-09-12T05:20:31;13.35;;;8.93;;
26219;SDS011;13955;55.574;37.474;2022-09-12T05:23:00;14.70;;;9.87;;
26219;SDS011;13955;55.574;37.474;2022-09-12T05:25:29;13.98;;;9.38;;
26219;SDS011;13955;55.574;37.474;2022-09-12T05:27:58;12.82;;;9.43;;
26219;SDS011;13955;55.574;37.474;2022-09-12T05:30:27;11.12;;;9.18;;
26219;SDS011;13955;55.574;37.474;2022-09-12T05:32:55;10.50;;;8.18;;
26219;SDS011;13955;55.574;37.474;2022-09-12T05:35:24;19.07;;;8.88;;
26219;SDS011;13955;55.574;37.474;2022-09-12T05:37:53;12.28;;;8.93;;
26219;SDS011;13955;55.574;37.474;2022-09-12T05:40:22;11.60;;;8.50;;
26219;SDS011;13955;55.574;37.474;2022-09-12T05:42:51;15.72;;;9.53;;
26219;SDS011;13955;55.574;37.474;2022-09-12T05:45:19;13.72;;;8.93;;
26219;SDS011;13955;55.574;37.474;2022-09-12T05:47:48;11.60;;;8.50;;
26219;SDS011;13955;55.574;37.474;2022-09-12T05:50:17;15.68;;;9.28;;
26219;SDS011;13955;55.574;37.474;2022-09-12T05:52:46;11.70;;;8.10;;
26219;SDS011;13955;55.574;37.474;2022-09-12T05:55:15;11.15;;;9.03;;
26219;SDS011;13955;55.574;37.474;2022-09-12T05:57:44;14.63;;;8.58;;
26219;SDS011;13955;55.574;37.474;2022-09-12T06:00:13;15.15;;;9.25;;
26219;SDS011;13955;55.574;37.474;2022-09-12T06:02:42;12.37;;;8.85;;
26219;SDS011;13955;55.574;37.474;2022-09-12T06:05:11;12.95;;;8.95;;
26219;SDS011;13955;55.574;37.474;2022-09-12T06:07:40;21.52;;;9.40;;
26219;SDS011;13955;55.574;37.474;2022-09-12T06:10:09;13.65;;;8.38;;
26219;SDS011;13955;55.574;37.474;2022-09-12T06:12:38;12.35;;;8.88;;
26219;SDS011;13955;55.574;37.474;2022-09-12T06:15:07;14.95;;;8.60;;
26219;SDS011;13955;55.574;37.474;2022-09-12T06:17:36;14.93;;;9.13;;
26219;SDS011;13955;55.574;37.474;2022-09-12T06:20:05;13.43;;;8.83;;
26219;SDS011;13955;55.574;37.474;2022-09-12T06:22:34;11.65;;;8.45;;
26219;SDS011;13955;55.574;37.474;2022-09-12T06:25:03;18.73;;;9.05;;
26219;SDS011;13955;55.574;37.474;2022-09-12T06:27:31;13.75;;;7.80;;
26219;SDS011;13955;55.574;37.474;2022-09-12T06:29:59;14.33;;;9.25;;
26219;SDS011;13955;55.574;37.474;2022-09-12T06:32:29;13.10;;;8.43;;
26219;SDS011;13955;55.574;37.474;2022-09-12T06:34:58;11.85;;;8.13;;
26219;SDS011;13955;55.574;37.474;2022-09-12T06:37:27;9.65;;;7.58;;
26219;SDS011;13955;55.574;37.474;2022-09-12T06:39:55;12.63;;;8.88;;
26219;SDS011;13955;55.574;37.474;2022-09-12T06:42:24;12.37;;;8.25;;
26219;SDS011;13955;55.574;37.474;2022-09-12T06:44:55;12.98;;;9.00;;
26219;SDS011;13955;55.574;37.474;2022-09-12T06:47:23;10.28;;;7.12;;
26219;SDS011;13955;55.574;37.474;2022-09-12T06:49:52;20.27;;;11.10;;
26219;SDS011;13955;55.574;37.474;2022-09-12T06:52:21;10.53;;;8.00;;
26219;SDS011;13955;55.574;37.474;2022-09-12T06:54:49;12.43;;;8.55;;
26219;SDS011;13955;55.574;37.474;2022-09-12T06:57:18;11.05;;;8.43;;
26219;SDS011;13955;55.574;37.474;2022-09-12T06:59:47;11.22;;;8.40;;
26219;SDS011;13955;55.574;37.474;2022-09-12T07:02:15;12.70;;;8.28;;
26219;SDS011;13955;55.574;37.474;2022-09-12T07:04:44;10.23;;;8.08;;
26219;SDS011;13955;55.574;37.474;2022-09-12T07:07:13;13.30;;;8.63;;
26219;SDS011;13955;55.574;37.474;2022-09-12T07:09:42;10.28;;;7.80;;
26219;SDS011;13955;55.574;37.474;2022-09-12T07:12:11;14.45;;;8.03;;
26219;SDS011;13955;55.574;37.474;2022-09-12T07:14:39;13.48;;;8.08;;
26219;SDS011;13955;55.574;37.474;2022-09-12T07:17:08;13.45;;;8.53;;
26219;SDS011;13955;55.574;37.474;2022-09-12T07:19:37;15.68;;;7.20;;
26219;SDS011;13955;55.574;37.474;2022-09-12T07:22:06;12.98;;;6.85;;
26219;SDS011;13955;55.574;37.474;2022-09-12T07:24:34;12.73;;;6.85;;
26219;SDS011;13955;55.574;37.474;2022-09-12T07:27:03;11.53;;;6.67;;
26219;SDS011;13955;55.574;37.474;2022-09-12T07:29:32;10.25;;;6.47;;
26219;SDS011;13955;55.574;37.474;2022-09-12T07:32:01;17.17;;;7.00;;
26219;SDS011;13955;55.574;37.474;2022-09-12T07:34:32;16.32;;;7.35;;
26219;SDS011;13955;55.574;37.474;2022-09-12T07:37:02;12.58;;;7.12;;
26219;SDS011;13955;55.574;37.474;2022-09-12T07:39:31;9.15;;;5.37;;
26219;SDS011;13955;55.574;37.474;2022-09-12T07:42:00;14.65;;;7.62;;
26219;SDS011;13955;55.574;37.474;2022-09-12T07:44:28;10.50;;;5.78;;
26219;SDS011;13955;55.574;37.474;2022-09-12T07:46:57;9.50;;;5.62;;
26219;SDS011;13955;55.574;37.474;2022-09-12T07:49:26;8.63;;;5.22;;
26219;SDS011;13955;55.574;37.474;2022-09-12T07:51:55;11.08;;;5.87;;
26219;SDS011;13955;55.574;37.474;2022-09-12T07:54:24;7.37;;;5.40;;
26219;SDS011;13955;55.574;37.474;2022-09-12T07:56:54;12.68;;;5.65;;
26219;SDS011;13955;55.574;37.474;2022-09-12T07:59:23;9.28;;;6.03;;
26219;SDS011;13955;55.574;37.474;2022-09-12T08:01:52;10.90;;;5.83;;
26219;SDS011;13955;55.574;37.474;2022-09-12T08:04:21;8.98;;;5.72;;
26219;SDS011;13955;55.574;37.474;2022-09-12T08:06:50;11.38;;;5.25;;
26219;SDS011;13955;55.574;37.474;2022-09-12T08:09:18;8.93;;;5.72;;
26219;SDS011;13955;55.574;37.474;2022-09-12T08:11:47;16.07;;;6.83;;
26219;SDS011;13955;55.574;37.474;2022-09-12T08:14:16;9.65;;;5.70;;
26219;SDS011;13955;55.574;37.474;2022-09-12T08:16:45;8.83;;;5.60;;
26219;SDS011;13955;55.574;37.474;2022-09-12T08:19:14;12.53;;;6.58;;
26219;SDS011;13955;55.574;37.474;2022-09-12T08:21:43;10.88;;;6.45;;
26219;SDS011;13955;55.574;37.474;2022-09-12T08:24:12;12.53;;;6.03;;
26219;SDS011;13955;55.574;37.474;2022-09-12T08:26:41;10.38;;;6.37;;
26219;SDS011;13955;55.574;37.474;2022-09-12T08:29:10;11.80;;;7.22;;
26219;SDS011;13955;55.574;37.474;2022-09-12T08:31:38;10.43;;;6.20;;
26219;SDS011;13955;55.574;37.474;2022-09-12T08:34:09;11.55;;;6.60;;
26219;SDS011;13955;55.574;37.474;2022-09-12T08:36:38;14.30;;;7.22;;
26219;SDS011;13955;55.574;37.474;2022-09-12T08:39:07;10.32;;;6.78;;
26219;SDS011;13955;55.574;37.474;2022-09-12T08:41:40;16.25;;;8.30;;
26219;SDS011;13955;55.574;37.474;2022-09-12T08:47:07;11.97;;;7.42;;
26219;SDS011;13955;55.574;37.474;2022-09-12T08:52:11;15.53;;;9.30;;
26219;SDS011;13955;55.574;37.474;2022-09-12T08:54:40;19.92;;;8.10;;
26219;SDS011;13955;55.574;37.474;2022-09-12T08:57:13;14.90;;;7.97;;
26219;SDS011;13955;55.574;37.474;2022-09-12T08:59:42;11.73;;;8.10;;
26219;SDS011;13955;55.574;37.474;2022-09-12T09:02:29;29.23;;;9.80;;
26219;SDS011;13955;55.574;37.474;2022-09-12T09:05:02;11.30;;;8.23;;
26219;SDS011;13955;55.574;37.474;2022-09-12T09:07:39;25.30;;;9.93;;
26219;SDS011;13955;55.574;37.474;2022-09-12T09:12:49;19.57;;;8.28;;
26219;SDS011;13955;55.574;37.474;2022-09-12T09:17:50;21.17;;;8.43;;
26219;SDS011;13955;55.574;37.474;2022-09-12T09:23:02;15.45;;;8.88;;
26219;SDS011;13955;55.574;37.474;2022-09-12T09:28:17;25.17;;;9.58;;
26219;SDS011;13955;55.574;37.474;2022-09-12T09:30:41;15.03;;;8.90;;
26219;SDS011;13955;55.574;37.474;2022-09-12T09:33:14;15.55;;;9.08;;
26219;SDS011;13955;55.574;37.474;2022-09-12T09:35:45;13.55;;;7.97;;
26219;SDS011;13955;55.574;37.474;2022-09-12T09:43:18;21.73;;;10.97;;
26219;SDS011;13955;55.574;37.474;2022-09-12T09:45:46;22.50;;;10.48;;
26219;SDS011;13955;55.574;37.474;2022-09-12T09:48:16;15.30;;;10.13;;
26219;SDS011;13955;55.574;37.474;2022-09-12T09:50:47;19.75;;;11.60;;
26219;SDS011;13955;55.574;37.474;2022-09-12T09:56:04;17.12;;;10.43;;
26219;SDS011;13955;55.574;37.474;2022-09-12T09:58:33;18.20;;;10.07;;
26219;SDS011;13955;55.574;37.474;2022-09-12T10:01:10;19.03;;;11.43;;
26219;SDS011;13955;55.574;37.474;2022-09-12T10:03:33;17.02;;;11.70;;
26219;SDS011;13955;55.574;37.474;2022-09-12T10:06:05;17.65;;;11.33;;
26219;SDS011;13955;55.574;37.474;2022-09-12T10:08:33;17.37;;;11.73;;
26219;SDS011;13955;55.574;37.474;2022-09-12T10:11:04;21.50;;;12.77;;
26219;SDS011;13955;55.574;37.474;2022-09-12T10:13:51;17.27;;;12.00;;
26219;SDS011;13955;55.574;37.474;2022-09-12T10:16:22;19.12;;;12.60;;
26219;SDS011;13955;55.574;37.474;2022-09-12T10:18:52;20.92;;;12.78;;
26219;SDS011;13955;55.574;37.474;2022-09-12T10:21:26;22.98;;;12.40;;
26219;SDS011;13955;55.574;37.474;2022-09-12T10:26:31;23.95;;;12.90;;
26219;SDS011;13955;55.574;37.474;2022-09-12T10:29:02;22.30;;;12.63;;
26219;SDS011;13955;55.574;37.474;2022-09-12T10:31:40;23.87;;;13.58;;
26219;SDS011;13955;55.574;37.474;2022-09-12T10:34:01;18.45;;;12.95;;
26219;SDS011;13955;55.574;37.474;2022-09-12T10:36:35;20.90;;;13.22;;
26219;SDS011;13955;55.574;37.474;2022-09-12T10:39:05;20.70;;;14.28;;
26219;SDS011;13955;55.574;37.474;2022-09-12T10:41:35;23.35;;;13.32;;
26219;SDS011;13955;55.574;37.474;2022-09-12T10:44:13;19.50;;;14.10;;
26219;SDS011;13955;55.574;37.474;2022-09-12T10:46:38;26.55;;;15.48;;
26219;SDS011;13955;55.574;37.474;2022-09-12T10:49:23;21.97;;;14.80;;
26219;SDS011;13955;55.574;37.474;2022-09-12T10:51:52;25.23;;;14.07;;
26219;SDS011;13955;55.574;37.474;2022-09-12T10:54:22;27.50;;;14.43;;
26219;SDS011;13955;55.574;37.474;2022-09-12T11:02:26;17.25;;;11.88;;
26219;SDS011;13955;55.574;37.474;2022-09-12T11:04:59;17.52;;;12.68;;
26219;SDS011;13955;55.574;37.474;2022-09-12T11:10:17;19.67;;;12.68;;
26219;SDS011;13955;55.574;37.474;2022-09-12T11:12:50;20.12;;;13.50;;
26219;SDS011;13955;55.574;37.474;2022-09-12T11:33:54;20.90;;;16.07;;
26219;SDS011;13955;55.574;37.474;2022-09-12T11:36:26;24.05;;;15.40;;
26219;SDS011;13955;55.574;37.474;2022-09-12T11:38:57;29.60;;;17.92;;
26219;SDS011;13955;55.574;37.474;2022-09-12T11:41:27;22.10;;;15.93;;
26219;SDS011;13955;55.574;37.474;2022-09-12T11:44:02;23.27;;;14.93;;
26219;SDS011;13955;55.574;37.474;2022-09-12T11:46:33;25.80;;;15.15;;
26219;SDS011;13955;55.574;37.474;2022-09-12T11:49:06;25.05;;;16.37;;
26219;SDS011;13955;55.574;37.474;2022-09-12T11:51:38;35.52;;;16.10;;
26219;SDS011;13955;55.574;37.474;2022-09-12T11:56:58;23.80;;;14.73;;
26219;SDS011;13955;55.574;37.474;2022-09-12T12:01:58;25.50;;;16.12;;
26219;SDS011;13955;55.574;37.474;2022-09-12T12:04:37;21.42;;;13.72;;
26219;SDS011;13955;55.574;37.474;2022-09-12T12:07:02;30.10;;;14.98;;
26219;SDS011;13955;55.574;37.474;2022-09-12T12:09:31;29.30;;;14.95;;
26219;SDS011;13955;55.574;37.474;2022-09-12T12:12:02;25.57;;;16.48;;
26219;SDS011;13955;55.574;37.474;2022-09-12T12:17:16;25.25;;;17.45;;
26219;SDS011;13955;55.574;37.474;2022-09-12T12:19:46;27.00;;;17.12;;
26219;SDS011;13955;55.574;37.474;2022-09-12T12:22:18;23.02;;;16.42;;
26219;SDS011;13955;55.574;37.474;2022-09-12T12:24:54;23.60;;;16.00;;
26219;SDS011;13955;55.574;37.474;2022-09-12T12:35:40;25.77;;;16.57;;
26219;SDS011;13955;55.574;37.474;2022-09-12T12:38:25;24.37;;;15.98;;
26219;SDS011;13955;55.574;37.474;2022-09-12T12:43:42;27.87;;;16.37;;
26219;SDS011;13955;55.574;37.474;2022-09-12T12:46:23;25.10;;;15.00;;
26219;SDS011;13955;55.574;37.474;2022-09-12T12:48:51;22.05;;;15.83;;
26219;SDS011;13955;55.574;37.474;2022-09-12T12:51:28;24.75;;;16.52;;
26219;SDS011;13955;55.574;37.474;2022-09-12T12:53:57;24.55;;;15.98;;
26219;SDS011;13955;55.574;37.474;2022-09-12T12:56:28;26.80;;;16.15;;
26219;SDS011;13955;55.574;37.474;2022-09-12T12:58:57;24.65;;;16.55;;
26219;SDS011;13955;55.574;37.474;2022-09-12T13:01:27;29.60;;;15.65;;
26219;SDS011;13955;55.574;37.474;2022-09-12T13:04:03;25.82;;;16.10;;
26219;SDS011;13955;55.574;37.474;2022-09-12T13:06:37;28.38;;;18.30;;
26219;SDS011;13955;55.574;37.474;2022-09-12T13:09:22;28.70;;;16.42;;
26219;SDS011;13955;55.574;37.474;2022-09-12T13:11:56;27.07;;;16.75;;
26219;SDS011;13955;55.574;37.474;2022-09-12T13:14:35;31.60;;;16.62;;
26219;SDS011;13955;55.574;37.474;2022-09-12T13:17:04;30.27;;;16.67;;
26219;SDS011;13955;55.574;37.474;2022-09-12T13:19:35;26.75;;;15.05;;
26219;SDS011;13955;55.574;37.474;2022-09-12T13:22:05;26.15;;;14.85;;
26219;SDS011;13955;55.574;37.474;2022-09-12T13:24:47;23.07;;;14.43;;
26219;SDS011;13955;55.574;37.474;2022-09-12T13:27:19;70.30;;;20.50;;
26219;SDS011;13955;55.574;37.474;2022-09-12T13:29:48;28.73;;;15.63;;
26219;SDS011;13955;55.574;37.474;2022-09-12T13:32:17;22.42;;;14.78;;
26219;SDS011;13955;55.574;37.474;2022-09-12T13:34:50;25.75;;;15.23;;
26219;SDS011;13955;55.574;37.474;2022-09-12T13:37:23;18.45;;;12.98;;
26219;SDS011;13955;55.574;37.474;2022-09-12T13:47:43;23.22;;;12.98;;
26219;SDS011;13955;55.574;37.474;2022-09-12T13:50:18;18.05;;;12.73;;
26219;SDS011;13955;55.574;37.474;2022-09-12T13:52:44;19.12;;;12.18;;
26219;SDS011;13955;55.574;37.474;2022-09-12T13:57:57;17.32;;;12.13;;
26219;SDS011;13955;55.574;37.474;2022-09-12T14:00:26;18.23;;;12.00;;
26219;SDS011;13955;55.574;37.474;2022-09-12T14:02:58;16.45;;;11.18;;
26219;SDS011;13955;55.574;37.474;2022-09-12T14:05:53;21.05;;;11.48;;
26219;SDS011;13955;55.574;37.474;2022-09-12T14:08:17;15.98;;;10.78;;
26219;SDS011;13955;55.574;37.474;2022-09-12T14:10:48;17.98;;;11.80;;
26219;SDS011;13955;55.574;37.474;2022-09-12T14:13:19;17.82;;;11.45;;
26219;SDS011;13955;55.574;37.474;2022-09-12T14:15:48;16.50;;;10.80;;
26219;SDS011;13955;55.574;37.474;2022-09-12T14:18:25;16.40;;;10.30;;
26219;SDS011;13955;55.574;37.474;2022-09-12T14:20:55;15.88;;;9.35;;
26219;SDS011;13955;55.574;37.474;2022-09-12T14:23:28;13.75;;;10.55;;
26219;SDS011;13955;55.574;37.474;2022-09-12T14:26:02;18.70;;;11.05;;
26219;SDS011;13955;55.574;37.474;2022-09-12T14:28:33;21.68;;;11.48;;
26219;SDS011;13955;55.574;37.474;2022-09-12T14:31:04;16.27;;;10.20;;
26219;SDS011;13955;55.574;37.474;2022-09-12T14:34:07;18.95;;;9.93;;
26219;SDS011;13955;55.574;37.474;2022-09-12T14:36:14;18.60;;;10.55;;
26219;SDS011;13955;55.574;37.474;2022-09-12T14:38:41;17.15;;;10.78;;
26219;SDS011;13955;55.574;37.474;2022-09-12T14:41:12;22.40;;;10.10;;
26219;SDS011;13955;55.574;37.474;2022-09-12T14:43:43;16.97;;;11.25;;
26219;SDS011;13955;55.574;37.474;2022-09-12T14:46:16;17.35;;;9.48;;
26219;SDS011;13955;55.574;37.474;2022-09-12T14:48:50;16.95;;;9.75;;
26219;SDS011;13955;55.574;37.474;2022-09-12T14:51:33;17.30;;;10.50;;
26219;SDS011;13955;55.574;37.474;2022-09-12T14:54:02;17.27;;;11.85;;
26219;SDS011;13955;55.574;37.474;2022-09-12T14:56:39;13.15;;;8.55;;
26219;SDS011;13955;55.574;37.474;2022-09-12T15:04:44;14.30;;;8.90;;
26219;SDS011;13955;55.574;37.474;2022-09-12T15:07:15;15.95;;;9.63;;
26219;SDS011;13955;55.574;37.474;2022-09-12T15:09:46;15.23;;;8.58;;
26219;SDS011;13955;55.574;37.474;2022-09-12T15:12:15;17.30;;;8.45;;
26219;SDS011;13955;55.574;37.474;2022-09-12T15:14:44;14.10;;;8.18;;
26219;SDS011;13955;55.574;37.474;2022-09-12T15:17:15;12.63;;;8.33;;
26219;SDS011;13955;55.574;37.474;2022-09-12T15:19:44;12.15;;;7.53;;
26219;SDS011;13955;55.574;37.474;2022-09-12T15:22:13;13.48;;;8.05;;
26219;SDS011;13955;55.574;37.474;2022-09-12T15:24:41;11.93;;;7.45;;
26219;SDS011;13955;55.574;37.474;2022-09-12T15:27:10;9.40;;;6.72;;
26219;SDS011;13955;55.574;37.474;2022-09-12T15:29:39;18.23;;;8.95;;
26219;SDS011;13955;55.574;37.474;2022-09-12T15:32:11;14.63;;;7.95;;
26219;SDS011;13955;55.574;37.474;2022-09-12T15:34:38;11.65;;;7.25;;
26219;SDS011;13955;55.574;37.474;2022-09-12T15:37:10;16.90;;;7.42;;
26219;SDS011;13955;55.574;37.474;2022-09-12T15:39:38;12.60;;;6.70;;
26219;SDS011;13955;55.574;37.474;2022-09-12T15:42:08;11.80;;;6.60;;
26219;SDS011;13955;55.574;37.474;2022-09-12T15:44:37;10.08;;;6.58;;
26219;SDS011;13955;55.574;37.474;2022-09-12T15:47:07;9.78;;;6.90;;
26219;SDS011;13955;55.574;37.474;2022-09-12T15:49:36;14.73;;;6.50;;
26219;SDS011;13955;55.574;37.474;2022-09-12T15:52:06;16.95;;;7.55;;
26219;SDS011;13955;55.574;37.474;2022-09-12T15:54:35;19.80;;;7.42;;
26219;SDS011;13955;55.574;37.474;2022-09-12T15:57:05;11.00;;;6.87;;
26219;SDS011;13955;55.574;37.474;2022-09-12T15:59:34;13.45;;;6.90;;
26219;SDS011;13955;55.574;37.474;2022-09-12T16:02:03;15.58;;;6.83;;
26219;SDS011;13955;55.574;37.474;2022-09-12T16:04:32;8.83;;;6.20;;
26219;SDS011;13955;55.574;37.474;2022-09-12T16:07:00;12.55;;;5.90;;
26219;SDS011;13955;55.574;37.474;2022-09-12T16:09:29;16.17;;;6.00;;
26219;SDS011;13955;55.574;37.474;2022-09-12T16:11:58;13.50;;;5.95;;
26219;SDS011;13955;55.574;37.474;2022-09-12T16:14:27;11.35;;;6.50;;
26219;SDS011;13955;55.574;37.474;2022-09-12T16:16:56;9.75;;;5.40;;
26219;SDS011;13955;55.574;37.474;2022-09-12T16:19:25;8.93;;;5.17;;
26219;SDS011;13955;55.574;37.474;2022-09-12T16:21:54;18.15;;;6.05;;
26219;SDS011;13955;55.574;37.474;2022-09-12T16:24:23;6.45;;;4.58;;
26219;SDS011;13955;55.574;37.474;2022-09-12T16:26:52;9.23;;;5.40;;
26219;SDS011;13955;55.574;37.474;2022-09-12T16:29:21;8.85;;;5.28;;
26219;SDS011;13955;55.574;37.474;2022-09-12T16:31:49;9.58;;;5.47;;
26219;SDS011;13955;55.574;37.474;2022-09-12T16:34:18;8.05;;;4.55;;
26219;SDS011;13955;55.574;37.474;2022-09-12T16:36:47;8.55;;;5.17;;
26219;SDS011;13955;55.574;37.474;2022-09-12T16:39:16;10.93;;;4.95;;
26219;SDS011;13955;55.574;37.474;2022-09-12T16:41:44;9.45;;;4.65;;